createdAt,value
2023-03-01T00:00:30.174Z,37.00
2023-03-01T00:03:24.110Z,36.30
2023-03-01T00:05:57.491Z,37.00
2023-03-01T00:08:32.079Z,36.60
2023-03-01T00:11:13.522Z,38.10
2023-03-01T00:13:48.294Z,38.10
2023-03-01T00:16:24.095Z,37.00
2023-03-01T00:18:59.091Z,38.80
2023-03-01T00:21:32.954Z,37.30
2023-03-01T00:24:07.589Z,34.20
2023-03-01T00:26:41.159Z,35.30
2023-03-01T00:29:15.151Z,34.20
2023-03-01T00:31:48.794Z,35.30
2023-03-01T00:34:22.463Z,34.80
2023-03-01T00:36:56.073Z,33.50
2023-03-01T00:39:29.698Z,33.20
2023-03-01T00:42:03.604Z,34.80
2023-03-01T00:44:37.195Z,33.80
2023-03-01T00:47:11.900Z,32.40
2023-03-01T00:49:45.502Z,31.90
2023-03-01T00:52:18.929Z,33.40
2023-03-01T00:54:54.542Z,31.90
2023-03-01T00:57:28.410Z,31.30
2023-03-01T01:00:02.720Z,29.80
2023-03-01T01:02:36.814Z,29.80
2023-03-01T01:05:11.835Z,29.90
2023-03-01T01:07:46.146Z,31.50
2023-03-01T01:10:22.248Z,28.80
2023-03-01T01:12:55.484Z,30.20
2023-03-01T01:15:30.291Z,30.20
2023-03-01T01:18:03.792Z,29.40
2023-03-01T01:20:40.030Z,31.20
2023-03-01T01:23:13.377Z,30.60
2023-03-01T01:25:46.837Z,31.30
2023-03-01T01:28:20.307Z,30.50
2023-03-01T01:30:54.107Z,29.00
2023-03-01T01:33:28.455Z,28.10
2023-03-01T01:36:02.482Z,29.30
2023-03-01T01:38:36.429Z,29.00
2023-03-01T01:41:12.717Z,28.50
2023-03-01T01:43:48.224Z,30.10
2023-03-01T01:46:31.959Z,29.70
2023-03-01T01:49:09.977Z,31.20
2023-03-01T01:51:49.236Z,28.70
2023-03-01T01:54:27.878Z,29.40
2023-03-01T01:57:06.613Z,31.10
2023-03-01T01:59:41.784Z,30.20
2023-03-01T02:02:16.359Z,29.90
2023-03-01T02:04:52.554Z,28.00
2023-03-01T02:07:28.738Z,30.10
2023-03-01T02:10:03.300Z,29.60
2023-03-01T02:12:38.720Z,29.60
2023-03-01T02:15:13.630Z,31.40
2023-03-01T02:17:47.767Z,31.40
2023-03-01T02:20:26.519Z,31.50
2023-03-01T02:23:00.771Z,30.10
2023-03-01T02:25:43.538Z,31.30
2023-03-01T02:28:32.550Z,32.00
2023-03-01T02:31:26.705Z,29.90
2023-03-01T02:34:01.470Z,31.70
2023-03-01T02:36:41.506Z,30.70
2023-03-01T02:39:20.891Z,31.90
2023-03-01T02:41:59.285Z,32.60
2023-03-01T02:44:32.935Z,31.40
2023-03-01T02:47:07.382Z,31.10
2023-03-01T02:49:41.485Z,32.50
2023-03-01T02:52:31.446Z,32.10
2023-03-01T02:55:09.151Z,32.00
2023-03-01T02:57:45.583Z,32.80
2023-03-01T03:00:22.933Z,31.70
2023-03-01T03:02:58.458Z,32.30
2023-03-01T03:05:34.013Z,33.70
2023-03-01T03:08:09.034Z,30.50
2023-03-01T03:10:45.564Z,31.40
2023-03-01T03:13:20.428Z,30.50
2023-03-01T03:15:54.100Z,32.40
2023-03-01T03:18:28.524Z,30.60
2023-03-01T03:21:02.237Z,30.50
2023-03-01T03:23:36.784Z,31.40
2023-03-01T03:26:10.659Z,31.70
2023-03-01T03:28:48.185Z,31.60
2023-03-01T03:31:21.931Z,32.30
2023-03-01T03:33:58.197Z,32.40
2023-03-01T03:36:32.581Z,29.60
2023-03-01T03:39:07.031Z,30.90
2023-03-01T03:41:41.026Z,29.50
2023-03-01T03:44:14.560Z,30.00
2023-03-01T03:46:48.388Z,30.70
2023-03-01T03:49:22.191Z,27.90
2023-03-01T03:51:55.831Z,30.20
2023-03-01T03:54:29.874Z,31.30
2023-03-01T03:57:03.517Z,31.00
2023-03-01T03:59:37.071Z,30.70
2023-03-01T04:02:11.427Z,31.70
2023-03-01T04:04:44.945Z,33.00
2023-03-01T04:07:18.690Z,30.70
2023-03-01T04:09:52.644Z,31.60
2023-03-01T04:12:26.391Z,32.00
2023-03-01T04:15:00.161Z,29.90
2023-03-01T04:17:33.768Z,30.50
2023-03-01T04:20:08.422Z,31.50
2023-03-01T04:22:43.215Z,31.40
2023-03-01T04:25:17.163Z,30.80
2023-03-01T04:27:51.004Z,33.80
2023-03-01T04:30:26.708Z,32.50
2023-03-01T04:33:00.491Z,33.90
2023-03-01T04:35:34.268Z,32.70
2023-03-01T04:38:08.163Z,33.00
2023-03-01T04:40:43.816Z,31.10
2023-03-01T04:43:17.842Z,32.60
2023-03-01T04:45:51.165Z,33.50
2023-03-01T04:48:24.994Z,33.40
2023-03-01T04:50:58.472Z,30.80
2023-03-01T04:53:32.673Z,33.20
2023-03-01T04:56:06.898Z,33.10
2023-03-01T04:58:40.683Z,33.70
2023-03-01T05:01:17.976Z,31.80
2023-03-01T05:03:53.718Z,32.60
2023-03-01T05:06:27.516Z,33.30
2023-03-01T05:09:01.306Z,32.00
2023-03-01T05:11:37.226Z,29.70
2023-03-01T05:14:12.490Z,31.80
2023-03-01T05:16:46.278Z,31.40
2023-03-01T05:19:24.240Z,30.90
2023-03-01T05:22:07.246Z,29.90
2023-03-01T05:24:41.209Z,29.40
2023-03-01T05:27:15.640Z,30.90
2023-03-01T05:29:49.752Z,30.30
2023-03-01T05:32:23.552Z,30.70
2023-03-01T05:34:56.953Z,30.10
2023-03-01T05:37:30.997Z,29.80
2023-03-01T05:40:06.610Z,30.40
2023-03-01T05:42:39.963Z,28.60
2023-03-01T05:45:15.360Z,29.30
2023-03-01T05:47:50.002Z,30.50
2023-03-01T05:50:26.532Z,28.90
2023-03-01T05:53:05.755Z,31.70
2023-03-01T05:55:40.116Z,29.00
2023-03-01T05:58:16.629Z,31.70
2023-03-01T06:00:52.921Z,30.00
2023-03-01T06:03:28.513Z,29.90
2023-03-01T06:06:03.600Z,29.40
2023-03-01T06:08:37.253Z,30.50
2023-03-01T06:11:10.876Z,29.90
2023-03-01T06:13:45.883Z,30.70
2023-03-01T06:16:19.463Z,30.40
2023-03-01T06:18:53.198Z,28.50
2023-03-01T06:21:26.732Z,31.10
2023-03-01T06:24:00.302Z,28.90
2023-03-01T06:26:34.372Z,29.10
2023-03-01T06:29:08.826Z,30.00
2023-03-01T06:31:42.394Z,31.10
2023-03-01T06:34:15.965Z,30.50
2023-03-01T06:36:49.363Z,30.70
2023-03-01T06:39:23.295Z,31.00
2023-03-01T06:41:57.807Z,30.90
2023-03-01T06:44:32.485Z,30.40
2023-03-01T06:47:06.265Z,31.70
2023-03-01T06:49:39.625Z,29.00
2023-03-01T06:52:13.374Z,32.30
2023-03-01T06:54:46.995Z,30.00
2023-03-01T06:57:20.622Z,29.50
2023-03-01T06:59:54.431Z,29.80
2023-03-01T07:02:28.288Z,30.70
2023-03-01T07:05:02.076Z,31.70
2023-03-01T07:07:35.740Z,31.10
2023-03-01T07:10:12.204Z,30.10
2023-03-01T07:12:45.954Z,29.00
2023-03-01T07:15:19.785Z,29.80
2023-03-01T07:17:53.952Z,31.00
2023-03-01T07:20:27.925Z,29.80
2023-03-01T07:23:02.183Z,30.70
2023-03-01T07:25:36.338Z,28.60
2023-03-01T07:28:10.128Z,31.60
2023-03-01T07:30:43.887Z,29.60
2023-03-01T07:33:17.953Z,30.50
2023-03-01T07:35:58.521Z,30.00
2023-03-01T07:38:33.217Z,31.10
2023-03-01T07:41:08.165Z,31.10
2023-03-01T07:43:42.575Z,30.60
2023-03-01T07:46:16.540Z,31.40
2023-03-01T07:48:50.536Z,32.00
2023-03-01T07:51:24.125Z,31.50
2023-03-01T07:53:57.725Z,32.30
2023-03-01T07:56:31.652Z,30.80
2023-03-01T07:59:05.634Z,31.40
2023-03-01T08:01:39.483Z,31.10
2023-03-01T08:04:13.803Z,30.10
2023-03-01T08:06:47.833Z,31.60
2023-03-01T08:09:21.475Z,31.80
2023-03-01T08:11:55.825Z,31.20
2023-03-01T08:14:29.396Z,31.00
2023-03-01T08:17:04.305Z,31.10
2023-03-01T08:19:38.072Z,28.40
2023-03-01T08:22:12.217Z,28.50
2023-03-01T08:24:45.826Z,27.60
2023-03-01T08:27:20.158Z,27.40
2023-03-01T08:29:54.059Z,27.80
2023-03-01T08:32:27.965Z,28.50
2023-03-01T08:35:02.042Z,26.30
2023-03-01T08:37:36.079Z,27.20
2023-03-01T08:40:12.726Z,26.50
2023-03-01T08:42:46.471Z,27.20
2023-03-01T08:45:20.756Z,26.00
2023-03-01T08:47:56.650Z,26.70
2023-03-01T08:50:29.826Z,26.10
2023-03-01T08:53:03.215Z,24.80
2023-03-01T08:55:36.736Z,24.90
2023-03-01T08:58:10.337Z,24.40
2023-03-01T09:00:44.394Z,24.90
2023-03-01T09:03:17.991Z,24.50
2023-03-01T09:05:51.770Z,23.90
2023-03-01T09:08:25.574Z,24.00
2023-03-01T09:10:59.427Z,23.30
2023-03-01T09:13:34.068Z,23.70
2023-03-01T09:16:10.275Z,23.00
2023-03-01T09:18:43.844Z,23.20
2023-03-01T09:21:24.895Z,22.80
2023-03-01T09:24:04.232Z,22.60
2023-03-01T09:26:38.188Z,21.60
2023-03-01T09:29:12.116Z,22.10
2023-03-01T09:31:46.196Z,21.00
2023-03-01T09:34:24.837Z,22.00
2023-03-01T09:39:30.388Z,21.20
2023-03-01T09:42:07.924Z,21.90
2023-03-01T09:44:46.823Z,20.70
2023-03-01T09:47:24.135Z,20.00
2023-03-01T09:50:04.786Z,20.20
2023-03-01T09:52:44.483Z,19.60
2023-03-01T09:55:20.533Z,19.90
2023-03-01T09:57:58.639Z,18.90
2023-03-01T10:00:44.917Z,18.30
2023-03-01T10:03:26.745Z,17.70
2023-03-01T10:06:07.627Z,19.60
2023-03-01T10:08:44.847Z,18.20
2023-03-01T10:11:27.045Z,18.80
2023-03-01T10:14:05.900Z,18.40
2023-03-01T10:16:46.927Z,17.60
2023-03-01T10:19:30.322Z,18.20
2023-03-01T10:22:14.238Z,17.00
2023-03-01T10:24:49.121Z,15.90
2023-03-01T10:27:27.235Z,16.30
2023-03-01T10:30:13.846Z,15.40
2023-03-01T10:32:49.878Z,15.50
2023-03-01T10:35:27.390Z,15.40
2023-03-01T10:38:08.473Z,14.60
2023-03-01T10:40:59.635Z,16.30
2023-03-01T10:43:45.980Z,14.80
2023-03-01T10:46:30.579Z,14.70
2023-03-01T10:49:19.909Z,15.10
2023-03-01T10:51:55.745Z,15.30
2023-03-01T10:54:32.039Z,15.30
2023-03-01T10:57:08.590Z,15.60
2023-03-01T10:59:43.901Z,15.30
2023-03-01T11:02:27.408Z,14.30
2023-03-01T11:05:53.940Z,14.30
2023-03-01T11:08:49.207Z,14.10
2023-03-01T11:11:32.781Z,16.20
2023-03-01T11:14:26.864Z,15.20
2023-03-01T11:17:06.727Z,13.00
2023-03-01T11:19:39.960Z,13.10
2023-03-01T11:22:19.621Z,13.40
2023-03-01T11:25:08.933Z,12.90
2023-03-01T11:27:47.027Z,12.50
2023-03-01T11:30:26.932Z,12.10
2023-03-01T11:33:19.994Z,12.00
2023-03-01T11:36:01.102Z,13.00
2023-03-01T11:38:38.434Z,12.20
2023-03-01T11:41:17.798Z,12.60
2023-03-01T11:44:00.162Z,15.20
2023-03-01T11:47:07.370Z,12.60
2023-03-01T11:50:02.991Z,12.30
2023-03-01T11:52:51.478Z,11.90
2023-03-01T11:56:01.944Z,11.60
2023-03-01T11:58:56.914Z,12.40
2023-03-01T12:01:42.464Z,11.40
2023-03-01T12:04:59.818Z,12.90
2023-03-01T12:07:37.980Z,12.10
2023-03-01T12:10:26.286Z,11.60
2023-03-01T12:16:06.274Z,11.60
2023-03-01T12:19:03.136Z,10.90
2023-03-01T12:21:51.698Z,11.50
2023-03-01T12:24:46.601Z,11.90
2023-03-01T12:27:35.088Z,11.40
2023-03-01T12:30:28.089Z,11.50
2023-03-01T12:33:16.365Z,12.00
2023-03-01T12:36:12.298Z,11.90
2023-03-01T12:38:52.016Z,11.90
2023-03-01T12:41:46.411Z,11.90
2023-03-01T12:44:36.210Z,11.30
2023-03-01T12:47:22.035Z,11.30
2023-03-01T12:49:58.692Z,12.60
2023-03-01T12:52:40.902Z,11.80
2023-03-01T12:55:27.947Z,12.10
2023-03-01T12:58:11.005Z,12.60
2023-03-01T13:00:58.006Z,12.90
2023-03-01T13:03:41.866Z,13.80
2023-03-01T13:06:27.506Z,12.70
2023-03-01T13:09:09.174Z,12.90
2023-03-01T13:11:45.989Z,13.00
2023-03-01T13:14:47.328Z,12.30
2023-03-01T13:17:44.665Z,12.90
2023-03-01T13:20:21.559Z,13.40
2023-03-01T13:23:09.686Z,12.20
2023-03-01T13:26:16.798Z,13.50
2023-03-01T13:29:01.772Z,11.80
2023-03-01T13:32:06.009Z,12.20
2023-03-01T13:34:47.805Z,12.10
2023-03-01T13:37:31.036Z,12.90
2023-03-01T13:40:31.017Z,13.50
2023-03-01T13:43:30.604Z,14.70
2023-03-01T13:46:10.316Z,13.10
2023-03-01T13:48:46.513Z,13.60
2023-03-01T13:51:26.419Z,13.80
2023-03-01T13:54:01.642Z,14.10
2023-03-01T13:56:41.242Z,13.70
2023-03-01T13:59:21.006Z,15.10
2023-03-01T14:02:00.846Z,14.70
2023-03-01T14:04:37.470Z,13.80
2023-03-01T14:07:21.329Z,15.00
2023-03-01T14:09:58.221Z,15.00
2023-03-01T14:12:48.205Z,14.60
2023-03-01T14:15:28.480Z,13.80
2023-03-01T14:18:07.224Z,14.00
2023-03-01T14:20:46.805Z,13.10
2023-03-01T14:23:23.471Z,12.50
2023-03-01T14:26:00.299Z,13.40
2023-03-01T14:28:35.765Z,13.00
2023-03-01T14:31:51.777Z,13.10
2023-03-01T14:34:27.791Z,12.40
2023-03-01T14:37:12.542Z,13.00
2023-03-01T14:39:46.397Z,12.60
2023-03-01T14:42:21.470Z,13.40
2023-03-01T14:44:57.604Z,13.80
2023-03-01T14:47:34.863Z,12.60
2023-03-01T14:50:18.633Z,12.90
2023-03-01T14:52:57.411Z,13.10
2023-03-01T14:55:36.555Z,12.50
2023-03-01T14:58:14.472Z,13.00
2023-03-01T15:00:55.341Z,12.20
2023-03-01T15:03:41.266Z,12.50
2023-03-01T15:06:18.535Z,14.80
2023-03-01T15:08:55.600Z,14.00
2023-03-01T15:11:33.198Z,13.10
2023-03-01T15:14:45.698Z,14.40
2023-03-01T15:17:33.531Z,13.00
2023-03-01T15:20:19.342Z,14.20
2023-03-01T15:22:53.827Z,13.70
2023-03-01T15:25:30.965Z,14.30
2023-03-01T15:28:06.384Z,14.20
2023-03-01T15:30:41.797Z,14.30
2023-03-01T15:33:40.695Z,12.50
2023-03-01T15:36:36.471Z,13.20
2023-03-01T15:39:24.449Z,12.60
2023-03-01T15:41:59.302Z,13.80
2023-03-01T15:44:43.387Z,13.60
2023-03-01T15:47:33.271Z,13.30
2023-03-01T15:50:07.754Z,14.00
2023-03-01T15:52:46.001Z,14.00
2023-03-01T15:55:23.884Z,14.40
2023-03-01T15:58:07.882Z,15.40
2023-03-01T16:00:48.818Z,13.70
2023-03-01T16:03:34.077Z,14.20
2023-03-01T16:06:09.152Z,15.00
2023-03-01T16:08:44.390Z,15.70
2023-03-01T16:11:22.093Z,13.90
2023-03-01T16:13:56.288Z,14.30
2023-03-01T16:16:31.665Z,14.00
2023-03-01T16:19:06.076Z,13.60
2023-03-01T16:21:41.458Z,13.80
2023-03-01T16:24:15.046Z,13.50
2023-03-01T16:26:50.634Z,14.00
2023-03-01T16:29:25.504Z,13.40
2023-03-01T16:32:02.904Z,13.80
2023-03-01T16:34:37.328Z,14.40
2023-03-01T16:37:11.020Z,13.80
2023-03-01T16:39:45.251Z,15.80
2023-03-01T16:42:20.766Z,14.80
2023-03-01T16:44:59.072Z,12.60
2023-03-01T16:47:34.470Z,13.00
2023-03-01T16:50:10.052Z,12.40
2023-03-01T16:52:45.365Z,12.30
2023-03-01T16:55:19.339Z,14.50
2023-03-01T16:57:54.015Z,13.00
2023-03-01T17:00:29.885Z,13.30
2023-03-01T17:03:05.240Z,13.00
2023-03-01T17:05:42.908Z,14.00
2023-03-01T17:08:19.209Z,13.90
2023-03-01T17:10:53.641Z,12.90
2023-03-01T17:13:29.333Z,14.30
2023-03-01T17:16:06.036Z,14.30
2023-03-01T17:18:40.589Z,12.40
2023-03-01T17:21:16.802Z,13.50
2023-03-01T17:23:53.392Z,15.10
2023-03-01T17:26:29.956Z,14.50
2023-03-01T17:29:05.579Z,14.60
2023-03-01T17:31:42.033Z,15.40
2023-03-01T17:34:17.882Z,14.90
2023-03-01T17:36:56.239Z,14.90
2023-03-01T17:39:36.964Z,15.60
2023-03-01T17:42:12.675Z,14.20
2023-03-01T17:44:46.985Z,14.80
2023-03-01T17:47:22.069Z,16.50
2023-03-01T17:49:58.629Z,15.90
2023-03-01T17:52:34.866Z,17.20
2023-03-01T17:55:12.976Z,16.30
2023-03-01T17:57:48.013Z,15.80
2023-03-01T18:00:31.798Z,16.80
2023-03-01T18:03:08.845Z,17.20
2023-03-01T18:05:44.704Z,18.30
2023-03-01T18:08:19.080Z,16.50
2023-03-01T18:11:00.684Z,16.70
2023-03-01T18:13:36.767Z,17.30
2023-03-01T18:16:17.225Z,23.20
2023-03-01T18:18:55.049Z,22.70
2023-03-01T18:21:31.670Z,20.70
2023-03-01T18:24:07.581Z,17.90
2023-03-01T18:26:45.355Z,20.30
2023-03-01T18:29:21.375Z,23.70
2023-03-01T18:31:57.043Z,24.00
2023-03-01T18:34:33.972Z,23.10
2023-03-01T18:37:10.624Z,23.10
2023-03-01T18:39:49.265Z,24.10
2023-03-01T18:42:27.909Z,24.00
2023-03-01T18:45:07.309Z,22.90
2023-03-01T18:47:44.483Z,22.00
2023-03-01T18:50:24.576Z,22.60
2023-03-01T18:53:04.524Z,23.90
2023-03-01T18:55:42.106Z,21.60
2023-03-01T18:58:17.589Z,20.20
2023-03-01T19:00:59.031Z,20.80
2023-03-01T19:03:36.514Z,21.10
2023-03-01T19:06:13.207Z,21.40
2023-03-01T19:08:50.565Z,22.20
2023-03-01T19:11:32.074Z,22.60
2023-03-01T19:14:09.702Z,21.00
2023-03-01T19:16:46.000Z,22.80
2023-03-01T19:19:23.852Z,21.40
2023-03-01T19:22:05.909Z,22.00
2023-03-01T19:24:43.109Z,21.80
2023-03-01T19:27:21.134Z,22.10
2023-03-01T19:29:56.876Z,21.80
2023-03-01T19:32:35.169Z,22.80
2023-03-01T19:35:13.046Z,20.90
2023-03-01T19:37:49.118Z,19.30
2023-03-01T19:40:27.029Z,21.30
2023-03-01T19:43:05.514Z,22.00
2023-03-01T19:48:18.311Z,23.20
2023-03-01T19:50:56.794Z,22.00
2023-03-01T19:53:34.107Z,23.50
2023-03-01T19:56:12.905Z,23.60
2023-03-01T19:58:51.553Z,22.40
2023-03-01T20:01:33.431Z,22.90
2023-03-01T20:04:11.655Z,22.90
2023-03-01T20:06:50.151Z,23.70
2023-03-01T20:09:27.747Z,22.60
2023-03-01T20:12:07.662Z,23.00
2023-03-01T20:14:43.938Z,23.70
2023-03-01T20:17:31.225Z,24.40
2023-03-01T20:20:08.865Z,24.00
2023-03-01T20:22:53.912Z,26.40
2023-03-01T20:25:35.751Z,24.60
2023-03-01T20:28:12.237Z,25.20
2023-03-01T20:30:53.709Z,24.90
2023-03-01T20:33:31.108Z,27.60
2023-03-01T20:36:09.284Z,26.30
2023-03-01T20:38:48.078Z,27.20
2023-03-01T20:44:02.146Z,24.00
2023-03-01T20:46:39.303Z,25.40
2023-03-01T20:49:16.335Z,23.70
2023-03-01T20:51:52.644Z,27.20
2023-03-01T20:54:30.997Z,28.40
2023-03-01T20:59:40.659Z,29.10
2023-03-01T21:02:17.574Z,30.20
2023-03-01T21:04:52.199Z,30.20
2023-03-01T21:07:32.208Z,30.70
2023-03-01T21:10:11.902Z,30.80
2023-03-01T21:12:47.589Z,31.30
2023-03-01T21:15:29.055Z,29.50
2023-03-01T21:18:04.384Z,31.20
2023-03-01T21:20:43.727Z,33.30
2023-03-01T21:23:19.792Z,31.90
2023-03-01T21:26:04.059Z,30.40
2023-03-01T21:28:38.334Z,29.90
2023-03-01T21:31:15.140Z,29.40
2023-03-01T21:33:53.038Z,31.60
2023-03-01T21:36:31.025Z,31.00
2023-03-01T21:39:07.245Z,31.70
2023-03-01T21:41:41.297Z,31.70
2023-03-01T21:44:15.257Z,41.30
2023-03-01T21:46:50.198Z,40.80
2023-03-01T21:49:23.942Z,35.60
2023-03-01T21:51:57.358Z,38.60
2023-03-01T21:54:31.708Z,37.20
2023-03-01T21:57:05.931Z,41.10
2023-03-01T21:59:40.055Z,39.00
2023-03-01T22:02:16.106Z,33.50
2023-03-01T22:04:49.927Z,34.20
2023-03-01T22:07:23.681Z,35.20
2023-03-01T22:09:58.234Z,36.80
2023-03-01T22:12:31.762Z,32.60
2023-03-01T22:15:06.018Z,32.80
2023-03-01T22:17:39.535Z,32.00
2023-03-01T22:20:15.062Z,31.50
2023-03-01T22:22:48.851Z,32.00
2023-03-01T22:25:22.845Z,34.90
2023-03-01T22:27:56.364Z,35.20
2023-03-01T22:30:30.110Z,30.60
2023-03-01T22:33:03.574Z,33.10
2023-03-01T22:35:37.339Z,33.20
2023-03-01T22:38:11.210Z,33.60
2023-03-01T22:40:44.967Z,33.60
2023-03-01T22:43:18.684Z,33.80
2023-03-01T22:45:52.495Z,34.10
2023-03-01T22:48:26.904Z,30.90
2023-03-01T22:51:00.841Z,32.10
2023-03-01T22:53:34.769Z,31.50
2023-03-01T22:56:17.944Z,32.20
2023-03-01T22:58:52.647Z,32.80
2023-03-01T23:01:27.578Z,33.70
2023-03-01T23:04:01.586Z,33.80
2023-03-01T23:06:35.839Z,32.90
2023-03-01T23:09:09.277Z,35.00
2023-03-01T23:11:43.489Z,33.10
2023-03-01T23:14:17.453Z,34.20
2023-03-01T23:16:51.922Z,31.60
2023-03-01T23:19:26.088Z,31.00
2023-03-01T23:21:59.716Z,31.90
2023-03-01T23:24:34.118Z,30.30
2023-03-01T23:27:07.898Z,31.10
2023-03-01T23:29:41.561Z,30.20
2023-03-01T23:32:16.168Z,32.60
2023-03-01T23:34:50.399Z,32.00
2023-03-01T23:37:24.102Z,33.30
2023-03-01T23:39:57.993Z,35.20
2023-03-01T23:42:31.469Z,33.40
2023-03-01T23:45:09.476Z,33.90
2023-03-01T23:47:44.672Z,32.00
2023-03-01T23:50:18.696Z,33.80
2023-03-01T23:52:52.625Z,36.00
2023-03-01T23:55:27.688Z,35.70
2023-03-01T23:58:01.132Z,35.20
